Flight Track Log - Related Links

Times and Time Zones

All times are in EDT time to prevent confusion due to time zone crossing. See the FLG3731 flight status page for this flight to view local times or setup timezone preferences in your user account.

Time Position Orientation Groundspeed Altitude Reporting Facility
EDT Latitude Longitude Course Direction KTS MPH feet Rate Location/Type
Sun 12:43:54 PM 42.6919 -73.8383 211° Southwest 203 234 3,200  Level Boston Center
Sun 12:44:55 PM 42.7244 -73.9069 303° West 244 281 5,200 2,091 Climbing Boston Center
Sun 12:46:00 PM 42.8278 -74.2941 281° West  Level FlightAware Approximate
Sun 12:46:06 PM 42.8008 -73.9625 332° Northwest 279 321 7,800  Level Boston Center
Sun 12:47:00 PM 42.8479 -74.4203 283° West  Level FlightAware Approximate
Sun 12:47:06 PM 42.8647 -74.0094 332° Northwest 269 310 9,800  Level Boston Center
Sun 12:48:00 PM 42.8722 -74.5444 304° West  Level FlightAware Approximate
Sun 12:48:06 PM 42.9453 -74.0711 331° Northwest 284 327 10,500  Level Boston Center
Sun 12:49:06 PM 43.0172 -74.1297 329° Northwest 324 373 12,300 1,591 Climbing Boston Center
Sun 12:50:18 PM 43.0950 -74.2228 319° Northwest 332 382 14,000 1,591 Climbing Boston Center
Sun 12:51:18 PM 43.1008 -74.3739 273° West 328 377 15,800 1,400 Climbing Boston Center
Sun 12:52:18 PM 43.1069 -74.5047 274° West 341 392 16,800 1,000 Climbing Boston Center
Sun 12:53:18 PM 43.1128 -74.6414 273° West 357 411 17,800 942 Climbing Boston Center
Sun 12:54:19 PM 43.1183 -74.7811 273° West 368 423 18,700 955 Climbing Boston Center
Sun 12:55:30 PM 43.1231 -74.9464 272° West 368 423 19,900 1,008 Climbing Boston Center
Sun 12:56:30 PM 43.1283 -75.0889 273° West 368 423 20,900 1,000 Climbing Boston Center
Sun 12:57:30 PM 43.1311 -75.2283 272° West 368 423 21,900 900 Climbing Boston Center
Sun 12:58:30 PM 43.1364 -75.3539 273° West 368 423 22,700 900 Climbing Boston Center
Sun 12:59:30 PM 43.1408 -75.4992 272° West 368 423 23,700 1,050 Climbing Boston Center
Sun 01:00:30 PM 43.1456 -75.6333 273° West 368 423 24,800 1,050 Climbing Boston Center
Sun 01:01:30 PM 43.1500 -75.7731 273° West 368 423 25,800 1,000 Climbing Boston Center
Sun 01:02:30 PM 43.1542 -75.9097 272° West 368 423 26,800 800 Climbing Boston Center
Sun 01:03:30 PM 43.1561 -76.0467 271° West 368 423 27,400 671 Climbing Boston Center
Sun 01:05:11 PM 43.1519 -76.2969 269° West 367 422 28,600 671 Climbing Cleveland Center
Sun 01:06:11 PM 43.1406 -76.4372 264° West 372 428 29,200 550 Climbing Cleveland Center
Sun 01:07:11 PM 43.1286 -76.5775 263° West 372 428 29,700 350 Climbing Cleveland Center
Sun 01:08:11 PM 43.1203 -76.6947 264° West 372 428 29,900 150 Climbing Cleveland Center
Sun 01:09:11 PM 43.1044 -76.8522 262° West 379 436 30,000 50 Climbing Cleveland Center
Sun 01:10:11 PM 43.0906 -77.0036 263° West 390 449 30,000  Level Cleveland Center
Sun 01:11:11 PM 43.0764 -77.1581 263° West 403 464 30,000  Level Cleveland Center
Sun 01:12:11 PM 43.0622 -77.3153 263° West 416 479 30,000  Level Cleveland Center
Sun 01:13:11 PM 43.0442 -77.4922 262° West 429 494 30,000  Level Cleveland Center
Sun 01:14:11 PM 43.0297 -77.6522 263° West 429 494 30,000  Level Cleveland Center
Sun 01:15:11 PM 43.0169 -77.8175 264° West 429 494 30,000  Level Cleveland Center
Sun 01:16:11 PM 42.9978 -77.9772 261° West 429 494 30,000  Level Cleveland Center
Sun 01:17:11 PM 42.9828 -78.1453 263° West 434 499 30,000  Level Cleveland Center
Sun 01:18:11 PM 42.9653 -78.3106 262° West 439 505 30,000  Level Cleveland Center
Sun 01:19:11 PM 42.9494 -78.4700 262° West 439 505 30,000  Level Cleveland Center
Sun 01:20:11 PM 42.9317 -78.6381 262° West 444 511 30,000  Level Cleveland Center
Sun 01:21:11 PM 42.9092 -78.8003 259° West 444 511 30,000  Level Cleveland Center
Sun 01:22:11 PM 42.8844 -78.9653 258° West 449 517 30,000 -550 Level Cleveland Center
Sun 01:23:11 PM 42.8617 -79.1331 260° West 449 517 28,900 -800 Descending Cleveland Center
Sun 01:24:11 PM 42.8367 -79.3064 259° West 461 531 28,400 -450 Descending Cleveland Center
Sun 01:25:11 PM 42.8114 -79.4794 259° West 471 542 28,000 -200 Descending Cleveland Center
Sun 01:26:11 PM 42.7836 -79.6497 258° West 471 542 28,000  Level Cleveland Center
Sun 01:27:11 PM 42.7597 -79.8083 258° West 460 529 28,000  Level Cleveland Center
Sun 01:28:11 PM 42.7461 -79.9669 263° West 439 505 28,000  Level Cleveland Center
Sun 01:29:11 PM 42.7386 -80.1253 266° West 434 499 28,000  Level Cleveland Center
Sun 01:30:11 PM 42.7328 -80.2808 267° West 420 483 28,000  Level Cleveland Center
Sun 01:31:11 PM 42.7269 -80.4419 267° West 425 489 28,000  Level Cleveland Center
Sun 01:32:11 PM 42.7208 -80.5831 267° West 420 483 28,000 -150 Level Cleveland Center
Sun 01:33:11 PM 42.7122 -80.7386 266° West 420 483 27,700 -450 Descending Cleveland Center
Sun 01:34:11 PM 42.7058 -80.8969 267° West 426 490 27,100 -500 Descending Cleveland Center
Sun 01:35:11 PM 42.6886 -81.0550 262° West 426 490 26,700 -650 Descending Cleveland Center
Sun 01:36:11 PM 42.6689 -81.2100 260° West 421 484 25,800 -950 Descending Cleveland Center
Sun 01:37:11 PM 42.6514 -81.3681 261° West 431 496 24,800 -900 Descending Cleveland Center
Sun 01:38:11 PM 42.6336 -81.5258 261° West 431 496 24,000 -400 Descending Cleveland Center
Sun 01:39:11 PM 42.6133 -81.6833 260° West 426 490 24,000 -100 Level Cleveland Center
Sun 01:40:11 PM 42.5950 -81.8325 261° West 426 490 23,800 -800 Descending Cleveland Center
Sun 01:41:11 PM 42.5744 -81.9900 260° West 426 490 22,400 -1,700 Descending Cleveland Center
Sun 01:42:11 PM 42.5581 -82.1419 262° West 426 490 20,400 -2,600 Descending Cleveland Center
Sun 01:43:11 PM 42.5392 -82.2853 260° West 412 474 17,200 -3,600 Descending Cleveland Center
Sun 01:43:41 PM 42.5297 -82.3750 262° West 387 445 15,000 -3,300 Descending Cleveland Center
Sun 01:44:11 PM 42.5206 -82.4256 256° West 400 460 13,900 -2,067 Descending Cleveland Center
Sun 01:45:11 PM 42.5017 -82.5575 259° West 380 437 11,900 -1,450 Descending Cleveland Center
Sun 01:46:11 PM 42.4625 -82.6519 241° Southwest 318 366 11,000 -1,350 Descending Cleveland Center
Sun 01:47:11 PM 42.4069 -82.7289 226° Southwest 303 349 9,200 -1,400 Descending Cleveland Center
Sun 01:48:11 PM 42.3739 -82.8175 243° Southwest 288 331 8,200 -950 Descending Cleveland Center
Sun 01:49:11 PM 42.3781 -82.9161 273° West 262 302 7,300 -600 Descending Cleveland Center
Sun 01:50:11 PM 42.4269 -82.9828 315° West 231 266 7,000 -150 Descending Cleveland Center
Sun 01:51:11 PM 42.4694 -83.0378 316° Northwest 225 259 7,000  Level Cleveland Center
Sun 01:51:42 PM 42.4894 -83.0808 302° West 196 226 7,000 -645 Level Cleveland Center
Sun 01:52:44 PM 42.4756 -83.1450 254° West 179 206 6,000 -934 Descending Cleveland Center
Sun 01:53:44 PM 42.4331 -83.1769 209° Southwest 162 186 5,100 -756 Descending Cleveland Center
Sun 01:54:51 PM 42.3883 -83.2117 210° Southwest 165 190 4,400 -744 Descending Cleveland Center
Sun 01:55:53 PM 42.3461 -83.2408 207° Southwest 174 200 3,500 -871 Descending Cleveland Center

Login

Don't have an account? Register now (free) for customized features, flight alerts, and more!